Wan Hai 508 — 9VJJ6 — position and weather

sailwx.info

Track history (hours):
 
Tides and Currents Weather Stations Pressure Air Temp Water Temp Dewpoint Dewpoint Depression Visibility Wind Speed Wind Dir Waves Ship Positions

Wan Hai 508

Last reported at 2016-Apr-21 16:33 UTC. Time now 2016-Apr-30 18:47 UTC.
Position N 01°54' E 102°24'.
Warning: this ship's position is 9 days out of date.

Length 269 m; draft 8.9 m.

Type: Cargo ship. MMSI: 565567000.

Date/timePositionNaut miles runAvg speedWind from/ knotsBaromVisibWave heightAir tempDewpointWater temp
2016-Apr-21 16:33N 01°54' E 102°24'1615.9
2016-Apr-21 15:33N 01°47' E 102°38'6014.9
2016-Apr-21 11:33N 01°13' E 103°27'1212.5
2016-Apr-21 10:34N 01°12' E 103°40'8 7.8
2016-Apr-21 09:33N 01°17' E 103°46'0 0.0
2016-Apr-21 08:31N 01°17' E 103°46'0 0.0
2016-Apr-21 07:28N 01°17' E 103°46'0 0.0
2016-Apr-21 06:28N 01°17' E 103°46'0 0.0
2016-Apr-21 05:28N 01°17' E 103°46'0 0.0
2016-Apr-21 04:31N 01°17' E 103°46'0 0.0
2016-Apr-21 03:28N 01°17' E 103°46'0 0.0
2016-Apr-21 02:28N 01°17' E 103°46'0 0.0
2016-Apr-21 01:31N 01°17' E 103°46'0 0.0
2016-Apr-21 00:31N 01°17' E 103°46'0 0.0
2016-Apr-20 23:31N 01°17' E 103°46'4 4.4
2016-Apr-20 22:33N 01°13' E 103°48'3 3.4
2016-Apr-20 21:33N 01°16' E 103°50'0 0.3
2016-Apr-20 20:31N 01°16' E 103°50'0 0.0
2016-Apr-20 19:25N 01°16' E 103°50'0 0.0
2016-Apr-20 18:28N 01°16' E 103°50'0 0.0
2016-Apr-20 17:28N 01°16' E 103°50'0 0.0
2016-Apr-20 16:31N 01°16' E 103°50'0 0.0
2016-Apr-20 15:31N 01°16' E 103°50'0 0.0
2016-Apr-20 14:28N 01°16' E 103°50'0 0.0
2016-Apr-20 13:25N 01°16' E 103°50'0 0.0
2016-Apr-20 12:28N 01°16' E 103°50'0 0.0
2016-Apr-20 11:28N 01°16' E 103°50'1 1.1
2016-Apr-20 10:34N 01°16' E 103°51'4 4.1
2016-Apr-20 09:33N 01°12' E 103°52'1211.9
2016-Apr-20 08:34N 01°05' E 103°42'1515.3
2016-Apr-20 07:33N 01°10' E 103°27'4413.5
2016-Apr-20 04:19N 01°35' E 102°52'1215.8
2016-Apr-20 03:33N 01°41' E 102°42'1616.3
2016-Apr-20 02:33N 01°48' E 102°27'  
Track history (hours):
 
Tides and Currents Weather Stations Pressure Air Temp Water Temp Dewpoint Dewpoint Depression Visibility Wind Speed Wind Dir Waves Ship Positions

Wan Hai 508

Last reported at 2016-Apr-21 16:33 UTC. Time now 2016-Apr-30 18:47 UTC.
Position N 01°54' E 102°24'.
Warning: this ship's position is 9 days out of date.

Length 269 m; draft 8.9 m.

Type: Cargo ship. MMSI: 565567000.

Date/timePositionNaut miles runAvg speedWind from/ knotsBaromVisibWave heightAir tempDewpointWater temp
2016-Apr-21 16:33N 01°54' E 102°24'1615.9
2016-Apr-21 15:33N 01°47' E 102°38'6014.9
2016-Apr-21 11:33N 01°13' E 103°27'1212.5
2016-Apr-21 10:34N 01°12' E 103°40'8 7.8
2016-Apr-21 09:33N 01°17' E 103°46'0 0.0
2016-Apr-21 08:31N 01°17' E 103°46'0 0.0
2016-Apr-21 07:28N 01°17' E 103°46'0 0.0
2016-Apr-21 06:28N 01°17' E 103°46'0 0.0
2016-Apr-21 05:28N 01°17' E 103°46'0 0.0
2016-Apr-21 04:31N 01°17' E 103°46'0 0.0
2016-Apr-21 03:28N 01°17' E 103°46'0 0.0
2016-Apr-21 02:28N 01°17' E 103°46'0 0.0
2016-Apr-21 01:31N 01°17' E 103°46'0 0.0
2016-Apr-21 00:31N 01°17' E 103°46'0 0.0
2016-Apr-20 23:31N 01°17' E 103°46'4 4.4
2016-Apr-20 22:33N 01°13' E 103°48'3 3.4
2016-Apr-20 21:33N 01°16' E 103°50'0 0.3
2016-Apr-20 20:31N 01°16' E 103°50'0 0.0
2016-Apr-20 19:25N 01°16' E 103°50'0 0.0
2016-Apr-20 18:28N 01°16' E 103°50'0 0.0
2016-Apr-20 17:28N 01°16' E 103°50'0 0.0
2016-Apr-20 16:31N 01°16' E 103°50'0 0.0
2016-Apr-20 15:31N 01°16' E 103°50'0 0.0
2016-Apr-20 14:28N 01°16' E 103°50'0 0.0
2016-Apr-20 13:25N 01°16' E 103°50'0 0.0
2016-Apr-20 12:28N 01°16' E 103°50'0 0.0
2016-Apr-20 11:28N 01°16' E 103°50'1 1.1
2016-Apr-20 10:34N 01°16' E 103°51'4 4.1
2016-Apr-20 09:33N 01°12' E 103°52'1211.9
2016-Apr-20 08:34N 01°05' E 103°42'1515.3
2016-Apr-20 07:33N 01°10' E 103°27'4413.5
2016-Apr-20 04:19N 01°35' E 102°52'1215.8
2016-Apr-20 03:33N 01°41' E 102°42'1616.3
2016-Apr-20 02:33N 01°48' E 102°27'  

Dump ship's entire track history